sensor_id;sensor_type;location;lat;lon;timestamp;temperature;humidity
6054;DHT22;3055;50.886;14.814;2022-10-31T00:01:25;9.70;99.90
6054;DHT22;3055;50.886;14.814;2022-10-31T00:03:52;9.80;99.90
6054;DHT22;3055;50.886;14.814;2022-10-31T00:06:19;9.80;99.90
6054;DHT22;3055;50.886;14.814;2022-10-31T00:08:47;9.70;99.90
6054;DHT22;3055;50.886;14.814;2022-10-31T00:11:14;9.70;99.90
6054;DHT22;3055;50.886;14.814;2022-10-31T00:13:41;9.70;99.90
6054;DHT22;3055;50.886;14.814;2022-10-31T00:16:15;9.70;99.90
6054;DHT22;3055;50.886;14.814;2022-10-31T00:18:42;9.80;99.90
6054;DHT22;3055;50.886;14.814;2022-10-31T00:21:09;9.80;99.90
6054;DHT22;3055;50.886;14.814;2022-10-31T00:23:36;9.80;99.90
6054;DHT22;3055;50.886;14.814;2022-10-31T00:26:03;9.70;99.90
6054;DHT22;3055;50.886;14.814;2022-10-31T00:28:31;9.70;99.90
6054;DHT22;3055;50.886;14.814;2022-10-31T00:30:59;9.60;99.90
6054;DHT22;3055;50.886;14.814;2022-10-31T00:33:28;9.50;99.90
6054;DHT22;3055;50.886;14.814;2022-10-31T00:35:58;9.40;99.90
6054;DHT22;3055;50.886;14.814;2022-10-31T00:38:25;9.30;99.90
6054;DHT22;3055;50.886;14.814;2022-10-31T00:40:52;9.30;99.90
6054;DHT22;3055;50.886;14.814;2022-10-31T00:43:19;9.20;99.90
6054;DHT22;3055;50.886;14.814;2022-10-31T00:45:45;9.20;99.90
6054;DHT22;3055;50.886;14.814;2022-10-31T00:48:13;9.10;99.90
6054;DHT22;3055;50.886;14.814;2022-10-31T00:50:41;9.20;99.90
6054;DHT22;3055;50.886;14.814;2022-10-31T00:53:08;9.10;99.90
6054;DHT22;3055;50.886;14.814;2022-10-31T00:55:35;9.10;99.90
6054;DHT22;3055;50.886;14.814;2022-10-31T00:58:02;9.00;99.90
6054;DHT22;3055;50.886;14.814;2022-10-31T01:00:29;9.00;99.90
6054;DHT22;3055;50.886;14.814;2022-10-31T01:02:56;9.00;99.90
6054;DHT22;3055;50.886;14.814;2022-10-31T01:05:23;9.00;99.90
6054;DHT22;3055;50.886;14.814;2022-10-31T01:07:51;9.00;99.90
6054;DHT22;3055;50.886;14.814;2022-10-31T01:10:18;9.00;99.90
6054;DHT22;3055;50.886;14.814;2022-10-31T01:12:47;9.10;99.90
6054;DHT22;3055;50.886;14.814;2022-10-31T01:15:16;9.00;99.90
6054;DHT22;3055;50.886;14.814;2022-10-31T01:17:43;9.00;99.90
6054;DHT22;3055;50.886;14.814;2022-10-31T01:20:11;8.90;99.90
6054;DHT22;3055;50.886;14.814;2022-10-31T01:22:39;8.90;99.90
6054;DHT22;3055;50.886;14.814;2022-10-31T01:25:11;9.00;99.90
6054;DHT22;3055;50.886;14.814;2022-10-31T01:27:38;9.00;99.90
6054;DHT22;3055;50.886;14.814;2022-10-31T01:30:06;9.10;99.90
6054;DHT22;3055;50.886;14.814;2022-10-31T01:32:33;9.00;99.90
6054;DHT22;3055;50.886;14.814;2022-10-31T01:35:00;8.90;99.90
6054;DHT22;3055;50.886;14.814;2022-10-31T01:37:26;8.90;99.90
6054;DHT22;3055;50.886;14.814;2022-10-31T01:39:53;8.80;99.90
6054;DHT22;3055;50.886;14.814;2022-10-31T01:42:22;8.70;99.90
6054;DHT22;3055;50.886;14.814;2022-10-31T01:44:55;8.70;99.90
6054;DHT22;3055;50.886;14.814;2022-10-31T01:47:31;8.60;99.90
6054;DHT22;3055;50.886;14.814;2022-10-31T01:50:02;8.60;99.90
6054;DHT22;3055;50.886;14.814;2022-10-31T01:52:32;8.60;99.90
6054;DHT22;3055;50.886;14.814;2022-10-31T01:55:06;8.60;99.90
6054;DHT22;3055;50.886;14.814;2022-10-31T01:57:37;8.60;99.90
6054;DHT22;3055;50.886;14.814;2022-10-31T02:00:08;8.60;99.90
6054;DHT22;3055;50.886;14.814;2022-10-31T02:02:36;8.60;99.90
6054;DHT22;3055;50.886;14.814;2022-10-31T02:05:06;8.50;99.90
6054;DHT22;3055;50.886;14.814;2022-10-31T02:07:38;8.50;99.90
6054;DHT22;3055;50.886;14.814;2022-10-31T02:10:06;8.60;99.90
6054;DHT22;3055;50.886;14.814;2022-10-31T02:12:35;8.60;99.90
6054;DHT22;3055;50.886;14.814;2022-10-31T02:15:04;8.50;99.90
6054;DHT22;3055;50.886;14.814;2022-10-31T02:17:32;8.50;99.90
6054;DHT22;3055;50.886;14.814;2022-10-31T02:20:09;8.50;99.90
6054;DHT22;3055;50.886;14.814;2022-10-31T02:22:43;8.60;99.90
6054;DHT22;3055;50.886;14.814;2022-10-31T02:25:28;8.50;99.90
6054;DHT22;3055;50.886;14.814;2022-10-31T02:28:23;8.50;99.90
6054;DHT22;3055;50.886;14.814;2022-10-31T02:31:07;8.50;99.90
6054;DHT22;3055;50.886;14.814;2022-10-31T02:33:42;8.60;99.90
6054;DHT22;3055;50.886;14.814;2022-10-31T02:36:15;8.60;99.90
6054;DHT22;3055;50.886;14.814;2022-10-31T02:38:50;8.40;99.90
6054;DHT22;3055;50.886;14.814;2022-10-31T02:41:22;8.40;99.90
6054;DHT22;3055;50.886;14.814;2022-10-31T02:44:00;8.40;99.90
6054;DHT22;3055;50.886;14.814;2022-10-31T02:46:35;8.40;99.90
6054;DHT22;3055;50.886;14.814;2022-10-31T02:49:10;8.30;99.90
6054;DHT22;3055;50.886;14.814;2022-10-31T02:51:39;8.40;99.90
6054;DHT22;3055;50.886;14.814;2022-10-31T02:54:17;8.40;99.90
6054;DHT22;3055;50.886;14.814;2022-10-31T02:56:44;8.50;99.90
6054;DHT22;3055;50.886;14.814;2022-10-31T02:59:11;8.40;99.90
6054;DHT22;3055;50.886;14.814;2022-10-31T03:02:03;8.40;99.90
6054;DHT22;3055;50.886;14.814;2022-10-31T03:04:52;8.40;99.90
6054;DHT22;3055;50.886;14.814;2022-10-31T03:07:28;8.30;99.90
6054;DHT22;3055;50.886;14.814;2022-10-31T03:10:04;8.30;99.90
6054;DHT22;3055;50.886;14.814;2022-10-31T03:12:38;8.50;99.90
6054;DHT22;3055;50.886;14.814;2022-10-31T03:15:13;8.40;99.90
6054;DHT22;3055;50.886;14.814;2022-10-31T03:17:51;8.40;99.90
6054;DHT22;3055;50.886;14.814;2022-10-31T03:20:22;8.30;99.90
6054;DHT22;3055;50.886;14.814;2022-10-31T03:22:51;8.30;99.90
6054;DHT22;3055;50.886;14.814;2022-10-31T03:25:19;8.30;99.90
6054;DHT22;3055;50.886;14.814;2022-10-31T03:27:46;8.30;99.90
6054;DHT22;3055;50.886;14.814;2022-10-31T03:30:14;8.20;99.90
6054;DHT22;3055;50.886;14.814;2022-10-31T03:32:47;8.20;99.90
6054;DHT22;3055;50.886;14.814;2022-10-31T03:35:17;8.20;99.90
6054;DHT22;3055;50.886;14.814;2022-10-31T03:37:46;8.20;99.90
6054;DHT22;3055;50.886;14.814;2022-10-31T03:40:16;8.10;99.90
6054;DHT22;3055;50.886;14.814;2022-10-31T03:42:50;8.00;99.90
6054;DHT22;3055;50.886;14.814;2022-10-31T03:45:22;7.90;99.90
6054;DHT22;3055;50.886;14.814;2022-10-31T03:47:52;8.10;99.90
6054;DHT22;3055;50.886;14.814;2022-10-31T03:50:20;8.00;99.90
6054;DHT22;3055;50.886;14.814;2022-10-31T03:52:52;8.00;99.90
6054;DHT22;3055;50.886;14.814;2022-10-31T03:55:26;8.00;99.90
6054;DHT22;3055;50.886;14.814;2022-10-31T03:57:57;8.10;99.90
6054;DHT22;3055;50.886;14.814;2022-10-31T04:00:25;8.00;99.90
6054;DHT22;3055;50.886;14.814;2022-10-31T04:02:58;8.00;99.90
6054;DHT22;3055;50.886;14.814;2022-10-31T04:05:27;8.00;99.90
6054;DHT22;3055;50.886;14.814;2022-10-31T04:07:56;8.00;99.90
6054;DHT22;3055;50.886;14.814;2022-10-31T04:10:26;8.10;99.90
6054;DHT22;3055;50.886;14.814;2022-10-31T04:12:57;8.00;99.90
6054;DHT22;3055;50.886;14.814;2022-10-31T04:15:25;8.00;99.90
6054;DHT22;3055;50.886;14.814;2022-10-31T04:17:57;8.00;99.90
6054;DHT22;3055;50.886;14.814;2022-10-31T04:20:32;8.10;99.90
6054;DHT22;3055;50.886;14.814;2022-10-31T04:22:59;8.00;99.90
6054;DHT22;3055;50.886;14.814;2022-10-31T04:25:26;8.00;99.90
6054;DHT22;3055;50.886;14.814;2022-10-31T04:27:53;7.90;99.90
6054;DHT22;3055;50.886;14.814;2022-10-31T04:30:20;7.90;99.90
6054;DHT22;3055;50.886;14.814;2022-10-31T04:32:47;7.90;99.90
6054;DHT22;3055;50.886;14.814;2022-10-31T04:35:15;7.90;99.90
6054;DHT22;3055;50.886;14.814;2022-10-31T04:37:42;7.90;99.90
6054;DHT22;3055;50.886;14.814;2022-10-31T04:40:10;8.00;99.90
6054;DHT22;3055;50.886;14.814;2022-10-31T04:42:37;8.00;99.90
6054;DHT22;3055;50.886;14.814;2022-10-31T04:45:05;7.90;99.90
6054;DHT22;3055;50.886;14.814;2022-10-31T04:47:32;7.90;99.90
6054;DHT22;3055;50.886;14.814;2022-10-31T04:49:59;7.90;99.90
6054;DHT22;3055;50.886;14.814;2022-10-31T04:52:27;7.80;99.90
6054;DHT22;3055;50.886;14.814;2022-10-31T04:54:54;7.70;99.90
6054;DHT22;3055;50.886;14.814;2022-10-31T04:57:21;7.70;99.90
6054;DHT22;3055;50.886;14.814;2022-10-31T04:59:48;7.60;99.90
6054;DHT22;3055;50.886;14.814;2022-10-31T05:02:15;7.50;99.90
6054;DHT22;3055;50.886;14.814;2022-10-31T05:04:42;7.50;99.90
6054;DHT22;3055;50.886;14.814;2022-10-31T05:07:08;7.50;99.90
6054;DHT22;3055;50.886;14.814;2022-10-31T05:09:37;7.60;99.90
6054;DHT22;3055;50.886;14.814;2022-10-31T05:12:04;7.70;99.90
6054;DHT22;3055;50.886;14.814;2022-10-31T05:14:31;7.70;99.90
6054;DHT22;3055;50.886;14.814;2022-10-31T05:16:57;7.70;99.90
6054;DHT22;3055;50.886;14.814;2022-10-31T05:19:24;7.60;99.90
6054;DHT22;3055;50.886;14.814;2022-10-31T05:21:51;7.50;99.90
6054;DHT22;3055;50.886;14.814;2022-10-31T05:24:18;7.60;99.90
6054;DHT22;3055;50.886;14.814;2022-10-31T05:26:49;7.50;99.90
6054;DHT22;3055;50.886;14.814;2022-10-31T05:29:16;7.40;99.90
6054;DHT22;3055;50.886;14.814;2022-10-31T05:31:42;7.50;99.90
6054;DHT22;3055;50.886;14.814;2022-10-31T05:34:09;7.50;99.90
6054;DHT22;3055;50.886;14.814;2022-10-31T05:36:36;7.40;99.90
6054;DHT22;3055;50.886;14.814;2022-10-31T05:39:04;7.40;99.90
6054;DHT22;3055;50.886;14.814;2022-10-31T05:41:30;7.50;99.90
6054;DHT22;3055;50.886;14.814;2022-10-31T05:43:59;7.50;99.90
6054;DHT22;3055;50.886;14.814;2022-10-31T05:46:25;7.50;99.90
6054;DHT22;3055;50.886;14.814;2022-10-31T05:48:52;7.50;99.90
6054;DHT22;3055;50.886;14.814;2022-10-31T05:51:19;7.40;99.90
6054;DHT22;3055;50.886;14.814;2022-10-31T05:53:46;7.30;99.90
6054;DHT22;3055;50.886;14.814;2022-10-31T05:56:13;7.30;99.90
6054;DHT22;3055;50.886;14.814;2022-10-31T05:58:40;7.30;99.90
6054;DHT22;3055;50.886;14.814;2022-10-31T06:01:08;7.30;99.90
6054;DHT22;3055;50.886;14.814;2022-10-31T06:03:35;7.20;99.90
6054;DHT22;3055;50.886;14.814;2022-10-31T06:06:02;7.30;99.90
6054;DHT22;3055;50.886;14.814;2022-10-31T06:08:29;7.30;99.90
6054;DHT22;3055;50.886;14.814;2022-10-31T06:10:56;7.20;99.90
6054;DHT22;3055;50.886;14.814;2022-10-31T06:13:23;7.20;99.90
6054;DHT22;3055;50.886;14.814;2022-10-31T06:15:50;7.50;99.90
6054;DHT22;3055;50.886;14.814;2022-10-31T06:18:18;7.40;99.90
6054;DHT22;3055;50.886;14.814;2022-10-31T06:20:45;7.40;99.90
6054;DHT22;3055;50.886;14.814;2022-10-31T06:23:12;7.60;99.90
6054;DHT22;3055;50.886;14.814;2022-10-31T06:25:39;7.50;99.90
6054;DHT22;3055;50.886;14.814;2022-10-31T06:28:06;7.50;99.90
6054;DHT22;3055;50.886;14.814;2022-10-31T06:30:32;7.60;99.90
6054;DHT22;3055;50.886;14.814;2022-10-31T06:33:03;7.50;99.90
6054;DHT22;3055;50.886;14.814;2022-10-31T06:35:31;7.50;99.90
6054;DHT22;3055;50.886;14.814;2022-10-31T06:37:58;7.50;99.90
6054;DHT22;3055;50.886;14.814;2022-10-31T06:40:25;7.50;99.90
6054;DHT22;3055;50.886;14.814;2022-10-31T06:42:58;7.60;99.90
6054;DHT22;3055;50.886;14.814;2022-10-31T06:45:25;7.70;99.90
6054;DHT22;3055;50.886;14.814;2022-10-31T06:47:53;7.80;99.90
6054;DHT22;3055;50.886;14.814;2022-10-31T06:50:20;7.90;99.90
6054;DHT22;3055;50.886;14.814;2022-10-31T06:52:52;8.00;99.90
6054;DHT22;3055;50.886;14.814;2022-10-31T06:55:19;8.10;99.90
6054;DHT22;3055;50.886;14.814;2022-10-31T06:57:51;8.10;99.90
6054;DHT22;3055;50.886;14.814;2022-10-31T07:00:18;8.20;99.90
6054;DHT22;3055;50.886;14.814;2022-10-31T07:02:53;8.30;99.90
6054;DHT22;3055;50.886;14.814;2022-10-31T07:05:20;8.40;99.90
6054;DHT22;3055;50.886;14.814;2022-10-31T07:07:47;8.50;99.90
6054;DHT22;3055;50.886;14.814;2022-10-31T07:10:15;8.60;99.90
6054;DHT22;3055;50.886;14.814;2022-10-31T07:12:42;8.70;99.90
6054;DHT22;3055;50.886;14.814;2022-10-31T07:15:09;8.80;99.90
6054;DHT22;3055;50.886;14.814;2022-10-31T07:17:36;8.90;99.90
6054;DHT22;3055;50.886;14.814;2022-10-31T07:20:04;9.00;99.90
6054;DHT22;3055;50.886;14.814;2022-10-31T07:22:34;9.10;99.90
6054;DHT22;3055;50.886;14.814;2022-10-31T07:25:01;9.20;99.90
6054;DHT22;3055;50.886;14.814;2022-10-31T07:27:35;9.30;99.90
6054;DHT22;3055;50.886;14.814;2022-10-31T07:30:02;9.40;99.90
6054;DHT22;3055;50.886;14.814;2022-10-31T07:32:37;9.60;99.90
6054;DHT22;3055;50.886;14.814;2022-10-31T07:35:05;9.60;99.90
6054;DHT22;3055;50.886;14.814;2022-10-31T07:37:31;9.80;99.90
6054;DHT22;3055;50.886;14.814;2022-10-31T07:39:58;9.90;99.90
6054;DHT22;3055;50.886;14.814;2022-10-31T07:42:25;10.00;99.90
6054;DHT22;3055;50.886;14.814;2022-10-31T07:44:54;10.20;99.90
6054;DHT22;3055;50.886;14.814;2022-10-31T07:47:20;10.30;99.90
6054;DHT22;3055;50.886;14.814;2022-10-31T07:49:47;10.40;99.90
6054;DHT22;3055;50.886;14.814;2022-10-31T07:52:14;10.50;99.90
6054;DHT22;3055;50.886;14.814;2022-10-31T07:54:41;10.60;99.90
6054;DHT22;3055;50.886;14.814;2022-10-31T07:57:08;10.80;99.90
6054;DHT22;3055;50.886;14.814;2022-10-31T07:59:35;10.80;99.90
6054;DHT22;3055;50.886;14.814;2022-10-31T08:02:03;11.00;99.90
6054;DHT22;3055;50.886;14.814;2022-10-31T08:04:30;11.10;99.90
6054;DHT22;3055;50.886;14.814;2022-10-31T08:06:57;11.30;99.90
6054;DHT22;3055;50.886;14.814;2022-10-31T08:09:24;11.40;99.90
6054;DHT22;3055;50.886;14.814;2022-10-31T08:11:52;11.50;99.90
6054;DHT22;3055;50.886;14.814;2022-10-31T08:14:19;11.70;99.90
6054;DHT22;3055;50.886;14.814;2022-10-31T08:16:46;11.80;99.90
6054;DHT22;3055;50.886;14.814;2022-10-31T08:19:14;12.00;99.90
6054;DHT22;3055;50.886;14.814;2022-10-31T08:21:41;12.20;99.90
6054;DHT22;3055;50.886;14.814;2022-10-31T08:24:08;12.30;99.90
6054;DHT22;3055;50.886;14.814;2022-10-31T08:26:35;12.50;99.90
6054;DHT22;3055;50.886;14.814;2022-10-31T08:29:02;12.60;99.90
6054;DHT22;3055;50.886;14.814;2022-10-31T08:31:29;12.80;99.90
6054;DHT22;3055;50.886;14.814;2022-10-31T08:33:56;12.90;99.90
6054;DHT22;3055;50.886;14.814;2022-10-31T08:36:24;13.10;99.90
6054;DHT22;3055;50.886;14.814;2022-10-31T08:38:51;13.10;99.90
6054;DHT22;3055;50.886;14.814;2022-10-31T08:41:18;13.20;99.90
6054;DHT22;3055;50.886;14.814;2022-10-31T08:43:46;13.30;99.90
6054;DHT22;3055;50.886;14.814;2022-10-31T08:46:13;13.50;99.90
6054;DHT22;3055;50.886;14.814;2022-10-31T08:48:40;13.60;47.70
6054;DHT22;3055;50.886;14.814;2022-10-31T08:51:09;13.80;31.20
6054;DHT22;3055;50.886;14.814;2022-10-31T08:53:37;14.00;50.90
6054;DHT22;3055;50.886;14.814;2022-10-31T08:56:04;14.10;55.00
6054;DHT22;3055;50.886;14.814;2022-10-31T08:58:31;14.30;1.00
6054;DHT22;3055;50.886;14.814;2022-10-31T09:01:00;14.40;1.00
6054;DHT22;3055;50.886;14.814;2022-10-31T09:03:28;14.50;1.00
6054;DHT22;3055;50.886;14.814;2022-10-31T09:05:57;14.70;1.00
6054;DHT22;3055;50.886;14.814;2022-10-31T09:08:24;14.90;1.00
6054;DHT22;3055;50.886;14.814;2022-10-31T09:10:55;14.90;1.00
6054;DHT22;3055;50.886;14.814;2022-10-31T09:13:22;15.10;1.00
6054;DHT22;3055;50.886;14.814;2022-10-31T09:15:50;15.20;1.00
6054;DHT22;3055;50.886;14.814;2022-10-31T09:18:19;15.30;1.00
6054;DHT22;3055;50.886;14.814;2022-10-31T09:20:48;15.40;1.00
6054;DHT22;3055;50.886;14.814;2022-10-31T09:23:16;15.50;1.00
6054;DHT22;3055;50.886;14.814;2022-10-31T09:25:44;15.60;1.00
6054;DHT22;3055;50.886;14.814;2022-10-31T09:28:14;15.80;1.00
6054;DHT22;3055;50.886;14.814;2022-10-31T09:30:41;15.90;1.00
6054;DHT22;3055;50.886;14.814;2022-10-31T09:33:11;16.00;1.00
6054;DHT22;3055;50.886;14.814;2022-10-31T09:35:39;16.10;99.90
6054;DHT22;3055;50.886;14.814;2022-10-31T09:38:09;16.20;99.90
6054;DHT22;3055;50.886;14.814;2022-10-31T09:40:37;16.30;99.90
6054;DHT22;3055;50.886;14.814;2022-10-31T09:43:13;16.60;99.90
6054;DHT22;3055;50.886;14.814;2022-10-31T09:45:50;16.80;84.50
6054;DHT22;3055;50.886;14.814;2022-10-31T09:48:27;16.80;1.00
6054;DHT22;3055;50.886;14.814;2022-10-31T09:51:00;17.00;99.90
6054;DHT22;3055;50.886;14.814;2022-10-31T09:53:32;17.10;1.00
6054;DHT22;3055;50.886;14.814;2022-10-31T09:56:02;17.20;1.00
6054;DHT22;3055;50.886;14.814;2022-10-31T09:58:37;17.30;99.90
6054;DHT22;3055;50.886;14.814;2022-10-31T10:01:09;17.40;99.90
6054;DHT22;3055;50.886;14.814;2022-10-31T10:03:43;17.60;99.90
6054;DHT22;3055;50.886;14.814;2022-10-31T10:06:16;17.70;99.90
6054;DHT22;3055;50.886;14.814;2022-10-31T10:08:45;17.90;1.00
6054;DHT22;3055;50.886;14.814;2022-10-31T10:11:33;18.10;1.00
6054;DHT22;3055;50.886;14.814;2022-10-31T10:14:16;18.20;99.90
6054;DHT22;3055;50.886;14.814;2022-10-31T10:17:04;18.30;1.00
6054;DHT22;3055;50.886;14.814;2022-10-31T10:19:48;18.30;99.90
6054;DHT22;3055;50.886;14.814;2022-10-31T10:22:21;18.40;99.90
6054;DHT22;3055;50.886;14.814;2022-10-31T10:24:59;18.60;99.90
6054;DHT22;3055;50.886;14.814;2022-10-31T10:27:40;18.70;99.90
6054;DHT22;3055;50.886;14.814;2022-10-31T10:30:15;18.80;99.90
6054;DHT22;3055;50.886;14.814;2022-10-31T10:32:44;18.80;99.90
6054;DHT22;3055;50.886;14.814;2022-10-31T10:35:19;18.90;99.90
6054;DHT22;3055;50.886;14.814;2022-10-31T10:37:49;18.90;99.90
6054;DHT22;3055;50.886;14.814;2022-10-31T10:40:19;19.00;99.90
6054;DHT22;3055;50.886;14.814;2022-10-31T10:42:56;19.10;99.90
6054;DHT22;3055;50.886;14.814;2022-10-31T10:45:46;19.30;99.90
6054;DHT22;3055;50.886;14.814;2022-10-31T10:48:42;19.30;99.90
6054;DHT22;3055;50.886;14.814;2022-10-31T10:51:19;19.40;99.90
6054;DHT22;3055;50.886;14.814;2022-10-31T10:53:57;19.50;99.90
6054;DHT22;3055;50.886;14.814;2022-10-31T10:56:37;19.60;99.90
6054;DHT22;3055;50.886;14.814;2022-10-31T10:59:08;19.50;99.90
6054;DHT22;3055;50.886;14.814;2022-10-31T11:01:38;19.50;99.90
6054;DHT22;3055;50.886;14.814;2022-10-31T11:04:21;19.60;99.90
6054;DHT22;3055;50.886;14.814;2022-10-31T11:07:00;19.70;99.90
6054;DHT22;3055;50.886;14.814;2022-10-31T11:09:27;19.70;99.90
6054;DHT22;3055;50.886;14.814;2022-10-31T11:11:55;19.80;99.90
6054;DHT22;3055;50.886;14.814;2022-10-31T11:14:22;19.80;99.60
6054;DHT22;3055;50.886;14.814;2022-10-31T11:16:54;19.90;91.20
6054;DHT22;3055;50.886;14.814;2022-10-31T11:19:23;20.10;77.60
6054;DHT22;3055;50.886;14.814;2022-10-31T11:21:51;20.30;67.10
6054;DHT22;3055;50.886;14.814;2022-10-31T11:24:19;20.40;53.10
6054;DHT22;3055;50.886;14.814;2022-10-31T11:26:47;20.50;50.90
6054;DHT22;3055;50.886;14.814;2022-10-31T11:29:17;20.60;57.00
6054;DHT22;3055;50.886;14.814;2022-10-31T11:31:46;20.80;38.40
6054;DHT22;3055;50.886;14.814;2022-10-31T11:34:27;20.90;33.30
6054;DHT22;3055;50.886;14.814;2022-10-31T11:36:59;21.00;27.70
6054;DHT22;3055;50.886;14.814;2022-10-31T11:39:28;21.00;26.20
6054;DHT22;3055;50.886;14.814;2022-10-31T11:41:59;21.00;23.00
6054;DHT22;3055;50.886;14.814;2022-10-31T11:44:29;21.00;27.20
6054;DHT22;3055;50.886;14.814;2022-10-31T11:46:59;21.00;11.50
6054;DHT22;3055;50.886;14.814;2022-10-31T11:49:31;20.90;8.00
6054;DHT22;3055;50.886;14.814;2022-10-31T11:52:00;20.90;7.30
6054;DHT22;3055;50.886;14.814;2022-10-31T11:54:32;20.90;9.60
6054;DHT22;3055;50.886;14.814;2022-10-31T11:56:59;20.80;9.10
6054;DHT22;3055;50.886;14.814;2022-10-31T11:59:28;20.70;4.20
6054;DHT22;3055;50.886;14.814;2022-10-31T12:01:58;20.60;3.90
6054;DHT22;3055;50.886;14.814;2022-10-31T12:04:34;20.60;2.70
6054;DHT22;3055;50.886;14.814;2022-10-31T12:07:03;20.60;1.00
6054;DHT22;3055;50.886;14.814;2022-10-31T12:09:33;20.60;1.70
6054;DHT22;3055;50.886;14.814;2022-10-31T12:12:30;20.60;1.00
6054;DHT22;3055;50.886;14.814;2022-10-31T12:15:14;20.70;1.00
6054;DHT22;3055;50.886;14.814;2022-10-31T12:17:45;20.60;1.00
6054;DHT22;3055;50.886;14.814;2022-10-31T12:20:22;20.70;1.00
6054;DHT22;3055;50.886;14.814;2022-10-31T12:22:58;20.70;1.00
6054;DHT22;3055;50.886;14.814;2022-10-31T12:25:39;20.80;1.00
6054;DHT22;3055;50.886;14.814;2022-10-31T12:28:49;20.80;1.00
6054;DHT22;3055;50.886;14.814;2022-10-31T12:31:27;20.80;1.00
6054;DHT22;3055;50.886;14.814;2022-10-31T12:34:09;20.80;1.00
6054;DHT22;3055;50.886;14.814;2022-10-31T12:36:49;20.80;1.00
6054;DHT22;3055;50.886;14.814;2022-10-31T12:39:34;20.70;1.00
6054;DHT22;3055;50.886;14.814;2022-10-31T12:42:11;20.80;1.00
6054;DHT22;3055;50.886;14.814;2022-10-31T12:45:10;20.90;1.00
6054;DHT22;3055;50.886;14.814;2022-10-31T12:47:53;20.80;1.00
6054;DHT22;3055;50.886;14.814;2022-10-31T12:50:28;20.90;1.00
6054;DHT22;3055;50.886;14.814;2022-10-31T12:53:11;21.00;1.00
6054;DHT22;3055;50.886;14.814;2022-10-31T12:55:54;21.00;1.00
6054;DHT22;3055;50.886;14.814;2022-10-31T12:58:25;21.10;1.00
6054;DHT22;3055;50.886;14.814;2022-10-31T13:00:58;21.20;1.00
6054;DHT22;3055;50.886;14.814;2022-10-31T13:03:32;21.40;1.00
6054;DHT22;3055;50.886;14.814;2022-10-31T13:06:05;21.60;1.00
6054;DHT22;3055;50.886;14.814;2022-10-31T13:08:39;21.70;1.00
6054;DHT22;3055;50.886;14.814;2022-10-31T13:11:10;21.90;1.00
6054;DHT22;3055;50.886;14.814;2022-10-31T13:13:42;22.10;1.00
6054;DHT22;3055;50.886;14.814;2022-10-31T13:16:15;22.30;1.00
6054;DHT22;3055;50.886;14.814;2022-10-31T13:18:46;22.40;1.00
6054;DHT22;3055;50.886;14.814;2022-10-31T13:21:25;22.70;1.00
6054;DHT22;3055;50.886;14.814;2022-10-31T13:23:55;22.90;1.00
6054;DHT22;3055;50.886;14.814;2022-10-31T13:26:46;23.00;1.00
6054;DHT22;3055;50.886;14.814;2022-10-31T13:29:18;23.20;1.00
6054;DHT22;3055;50.886;14.814;2022-10-31T13:31:47;23.40;1.00
6054;DHT22;3055;50.886;14.814;2022-10-31T13:34:23;23.50;1.00
6054;DHT22;3055;50.886;14.814;2022-10-31T13:36:58;23.50;1.00
6054;DHT22;3055;50.886;14.814;2022-10-31T13:39:38;23.50;1.00
6054;DHT22;3055;50.886;14.814;2022-10-31T13:42:13;23.60;1.00
6054;DHT22;3055;50.886;14.814;2022-10-31T13:44:41;23.70;1.00
6054;DHT22;3055;50.886;14.814;2022-10-31T13:47:23;23.80;1.00
6054;DHT22;3055;50.886;14.814;2022-10-31T13:49:50;23.80;1.00
6054;DHT22;3055;50.886;14.814;2022-10-31T13:52:24;23.80;1.00
6054;DHT22;3055;50.886;14.814;2022-10-31T13:54:53;23.90;1.00
6054;DHT22;3055;50.886;14.814;2022-10-31T13:57:32;23.70;1.00
6054;DHT22;3055;50.886;14.814;2022-10-31T14:00:02;23.50;1.00
6054;DHT22;3055;50.886;14.814;2022-10-31T14:02:31;23.20;1.00
6054;DHT22;3055;50.886;14.814;2022-10-31T14:05:00;22.90;1.00
6054;DHT22;3055;50.886;14.814;2022-10-31T14:07:29;22.70;1.00
6054;DHT22;3055;50.886;14.814;2022-10-31T14:10:01;22.40;1.00
6054;DHT22;3055;50.886;14.814;2022-10-31T14:12:31;22.20;1.00
6054;DHT22;3055;50.886;14.814;2022-10-31T14:15:04;22.10;1.00
6054;DHT22;3055;50.886;14.814;2022-10-31T14:17:40;21.80;1.00
6054;DHT22;3055;50.886;14.814;2022-10-31T14:20:39;21.70;1.00
6054;DHT22;3055;50.886;14.814;2022-10-31T14:23:33;21.50;1.00
6054;DHT22;3055;50.886;14.814;2022-10-31T14:26:21;21.60;1.00
6054;DHT22;3055;50.886;14.814;2022-10-31T14:28:57;21.60;1.00
6054;DHT22;3055;50.886;14.814;2022-10-31T14:31:34;21.60;1.00
6054;DHT22;3055;50.886;14.814;2022-10-31T14:34:17;21.60;1.00
6054;DHT22;3055;50.886;14.814;2022-10-31T14:37:03;21.60;1.00
6054;DHT22;3055;50.886;14.814;2022-10-31T14:39:33;21.50;1.00
6054;DHT22;3055;50.886;14.814;2022-10-31T14:42:16;21.30;1.00
6054;DHT22;3055;50.886;14.814;2022-10-31T14:45:12;21.00;1.00
6054;DHT22;3055;50.886;14.814;2022-10-31T14:47:47;20.80;1.00
6054;DHT22;3055;50.886;14.814;2022-10-31T14:50:22;20.60;1.00
6054;DHT22;3055;50.886;14.814;2022-10-31T14:52:53;20.50;1.00
6054;DHT22;3055;50.886;14.814;2022-10-31T14:55:22;20.30;1.00
6054;DHT22;3055;50.886;14.814;2022-10-31T14:57:54;20.20;1.00
6054;DHT22;3055;50.886;14.814;2022-10-31T15:00:22;20.00;1.00
6054;DHT22;3055;50.886;14.814;2022-10-31T15:03:01;19.80;1.00
6054;DHT22;3055;50.886;14.814;2022-10-31T15:05:31;19.50;1.00
6054;DHT22;3055;50.886;14.814;2022-10-31T15:08:00;19.10;1.00
6054;DHT22;3055;50.886;14.814;2022-10-31T15:10:29;18.80;1.00
6054;DHT22;3055;50.886;14.814;2022-10-31T15:13:09;18.50;1.00
6054;DHT22;3055;50.886;14.814;2022-10-31T15:15:37;18.10;1.00
6054;DHT22;3055;50.886;14.814;2022-10-31T15:18:05;17.80;1.00
6054;DHT22;3055;50.886;14.814;2022-10-31T15:20:37;17.60;1.00
6054;DHT22;3055;50.886;14.814;2022-10-31T15:23:11;17.40;34.10
6054;DHT22;3055;50.886;14.814;2022-10-31T15:25:40;17.20;92.70
6054;DHT22;3055;50.886;14.814;2022-10-31T15:28:15;17.00;99.90
6054;DHT22;3055;50.886;14.814;2022-10-31T15:30:50;16.70;99.90
6054;DHT22;3055;50.886;14.814;2022-10-31T15:33:22;16.60;99.90
6054;DHT22;3055;50.886;14.814;2022-10-31T15:35:57;16.40;99.90
6054;DHT22;3055;50.886;14.814;2022-10-31T15:38:25;16.20;1.00
6054;DHT22;3055;50.886;14.814;2022-10-31T15:40:55;16.00;59.80
6054;DHT22;3055;50.886;14.814;2022-10-31T15:43:25;15.80;99.90
6054;DHT22;3055;50.886;14.814;2022-10-31T15:45:52;15.70;1.00
6054;DHT22;3055;50.886;14.814;2022-10-31T15:48:22;15.70;1.00
6054;DHT22;3055;50.886;14.814;2022-10-31T15:50:53;15.50;1.00
6054;DHT22;3055;50.886;14.814;2022-10-31T15:53:24;15.30;1.00
6054;DHT22;3055;50.886;14.814;2022-10-31T15:55:54;15.10;99.90
6054;DHT22;3055;50.886;14.814;2022-10-31T15:58:21;15.00;1.00
6054;DHT22;3055;50.886;14.814;2022-10-31T16:00:59;14.70;99.90
6054;DHT22;3055;50.886;14.814;2022-10-31T16:03:28;14.60;1.00
6054;DHT22;3055;50.886;14.814;2022-10-31T16:05:56;14.50;1.00
6054;DHT22;3055;50.886;14.814;2022-10-31T16:08:30;14.50;1.00
6054;DHT22;3055;50.886;14.814;2022-10-31T16:10:59;14.30;1.00
6054;DHT22;3055;50.886;14.814;2022-10-31T16:13:29;14.20;1.00
6054;DHT22;3055;50.886;14.814;2022-10-31T16:15:59;14.10;1.00
6054;DHT22;3055;50.886;14.814;2022-10-31T16:18:28;13.90;1.00
6054;DHT22;3055;50.886;14.814;2022-10-31T16:20:56;13.80;1.00
6054;DHT22;3055;50.886;14.814;2022-10-31T16:23:24;13.70;1.00